Time;durP1;ratioP1;P1;durP2;ratioP2;P2;SDS_P1;SDS_P2;PMS_P1;PMS_P2;Temp;Humidity;BMP_temperature;BMP_pressure;BME280_temperature;BME280_humidity;BME280_pressure;Samples;Min_cycle;Max_cycle;Signal;HPM_P1;HPM_P2
2023/04/01 00:00:37;;;;;;;24.65;13.10;;;;;;;15.68;62.90;100078.13;6179563;23;20016;-82
2023/04/01 00:03:08;;;;;;;27.05;12.25;;;;;;;15.41;62.81;100028.69;6159439;23;20202;-83
2023/04/01 00:05:41;;;;;;;26.10;12.27;;;;;;;15.71;62.56;100068.94;6177097;23;20064;-81
2023/04/01 00:08:08;;;;;;;22.70;13.82;;;;;;;15.78;62.08;100068.00;6160738;23;20017;-81
2023/04/01 00:10:57;;;;;;;21.58;12.88;;;;;;;15.41;62.52;100039.41;6158619;23;20181;-81
2023/04/01 00:13:26;;;;;;;24.20;13.38;;;;;;;15.55;62.38;100061.84;6157683;23;20076;-82
2023/04/01 00:15:55;;;;;;;20.48;12.88;;;;;;;15.68;62.33;100078.13;6157519;23;20196;-82
2023/04/01 00:18:26;;;;;;;28.77;13.02;;;;;;;15.51;62.53;100052.50;6141603;23;20028;-80
2023/04/01 00:20:58;;;;;;;25.45;12.57;;;;;;;14.95;62.55;99969.97;6145869;23;20028;-81
2023/04/01 00:23:28;;;;;;;26.40;13.50;;;;;;;15.43;62.93;100068.66;6177316;23;20021;-82
2023/04/01 00:25:55;;;;;;;21.85;14.38;;;;;;;14.91;62.66;99990.06;6178525;23;20095;-82
2023/04/01 00:28:31;;;;;;;27.88;14.93;;;;;;;15.45;62.56;100078.16;6153821;23;20420;-82
2023/04/01 00:30:58;;;;;;;19.17;13.07;;;;;;;15.43;62.90;100087.38;6151994;23;20625;-82
2023/04/01 00:33:25;;;;;;;24.55;12.65;;;;;;;15.38;62.72;100071.88;6154807;23;20464;-82
2023/04/01 00:35:52;;;;;;;24.52;13.75;;;;;;;15.25;62.97;100048.41;6185048;23;20024;-80
2023/04/01 00:38:18;;;;;;;21.63;13.13;;;;;;;15.31;62.85;100054.88;6182490;23;20678;-81
2023/04/01 00:40:58;;;;;;;23.17;14.10;;;;;;;14.77;62.64;99982.81;6162831;23;20381;-80
2023/04/01 00:43:25;;;;;;;23.10;13.55;;;;;;;14.27;62.66;99903.03;6157108;23;20344;-81
2023/04/01 00:45:52;;;;;;;21.95;14.27;;;;;;;15.31;62.94;100086.97;6153556;23;20519;-80
2023/04/01 00:48:33;;;;;;;23.08;13.55;;;;;;;15.34;62.87;100089.28;6156579;23;20023;-83
2023/04/01 00:51:11;;;;;;;23.85;13.75;;;;;;;14.98;63.42;100059.66;6165381;23;20056;-83
2023/04/01 00:53:41;;;;;;;28.17;13.75;;;;;;;15.15;63.29;100071.91;6153395;23;20023;-80
2023/04/01 00:56:28;;;;;;;24.92;14.50;;;;;;;15.27;63.32;100102.56;6152400;23;20023;-83
2023/04/01 00:59:10;;;;;;;24.05;14.32;;;;;;;15.21;63.30;100086.38;6162392;23;20091;-82
2023/04/01 01:01:37;;;;;;;29.52;14.48;;;;;;;15.11;64.04;100086.63;6172031;23;20020;-83
2023/04/01 01:04:04;;;;;;;23.58;13.65;;;;;;;15.35;62.86;100088.28;6162343;23;20027;-82
2023/04/01 01:07:24;;;;;;;25.00;14.35;;;;;;;15.25;63.51;100082.34;6136435;23;20187;-81
2023/04/01 01:09:59;;;;;;;28.95;15.05;;;;;;;14.91;63.71;100041.66;6149579;23;20065;-82
2023/04/01 01:12:33;;;;;;;23.77;15.30;;;;;;;15.05;63.92;100074.81;6163323;23;20020;-82
2023/04/01 01:15:35;;;;;;;32.83;15.55;;;;;;;14.58;64.30;99995.63;6192573;23;20372;-82
2023/04/01 01:18:09;;;;;;;36.78;17.40;;;;;;;14.95;64.34;100072.38;6163247;23;20013;-81
2023/04/01 01:20:59;;;;;;;;;;;;;;;14.96;64.64;100082.06;6162951;23;20021;-83
2023/04/01 01:24:04;;;;;;;26.80;16.33;;;;;;;14.59;64.16;100018.69;6153805;23;20267;-81
2023/04/01 01:27:06;;;;;;;37.78;16.90;;;;;;;14.90;64.47;100074.75;6164036;23;20021;-82
2023/04/01 01:29:56;;;;;;;30.67;17.83;;;;;;;14.51;63.82;99999.97;6178236;23;20078;-82
2023/04/01 01:32:51;;;;;;;31.67;18.08;;;;;;;14.95;63.90;100076.88;6145018;23;20405;-81
2023/04/01 01:35:30;;;;;;;31.80;18.70;;;;;;;14.69;63.95;100048.66;6161954;23;20074;-81
2023/04/01 01:38:02;;;;;;;34.13;18.25;;;;;;;14.90;64.42;100085.44;6162973;23;20390;-81
2023/04/01 01:40:31;;;;;;;37.88;19.40;;;;;;;14.72;64.03;100060.84;6154902;23;20047;-80
2023/04/01 01:43:11;;;;;;;40.83;20.77;;;;;;;13.99;64.09;99941.91;6162002;23;20252;-82
2023/04/01 01:45:48;;;;;;;37.83;20.00;;;;;;;14.81;64.19;100088.34;6160044;23;20334;-82
2023/04/01 01:48:16;;;;;;;38.28;20.75;;;;;;;14.85;63.95;100087.78;6192709;23;20357;-81
2023/04/01 01:50:45;;;;;;;35.65;21.42;;;;;;;14.66;63.92;100069.53;6152738;23;20348;-81
2023/04/01 01:53:21;;;;;;;37.55;22.83;;;;;;;14.67;63.73;100064.03;6147793;23;20514;-82
2023/04/01 01:55:48;;;;;;;42.88;23.63;;;;;;;14.54;63.77;100045.09;6142559;23;20021;-83
2023/04/01 01:58:40;;;;;;;45.08;23.85;;;;;;;14.73;64.01;100084.72;6178536;23;20025;-81
2023/04/01 02:01:16;;;;;;;43.83;24.80;;;;;;;14.31;63.90;100019.13;6158183;23;20031;-82
2023/04/01 02:03:50;;;;;;;44.22;24.83;;;;;;;14.41;64.06;100044.78;6145166;23;20099;-81
2023/04/01 02:06:23;;;;;;;51.28;26.33;;;;;;;14.15;64.40;100016.56;6167723;23;20491;-81
2023/04/01 02:09:01;;;;;;;40.45;23.63;;;;;;;14.49;65.21;100076.78;6143125;23;20044;-80
2023/04/01 02:11:43;;;;;;;35.15;21.38;;;;;;;14.28;65.49;100054.19;6154742;23;20181;-81
2023/04/01 02:14:26;;;;;;;42.33;24.75;;;;;;;14.38;65.25;100067.31;6153264;23;20090;-82
2023/04/01 02:17:10;;;;;;;40.95;25.80;;;;;;;14.45;65.16;100075.47;6163111;23;20051;-81
2023/04/01 02:19:57;;;;;;;49.03;25.67;;;;;;;13.77;64.40;99960.34;6156283;23;20803;-80
2023/04/01 02:22:34;;;;;;;60.72;29.48;;;;;;;14.47;64.47;100068.13;6124147;23;20082;-82
2023/04/01 02:25:20;;;;;;;56.13;27.52;;;;;;;14.29;64.88;100049.66;6138339;23;20108;-83
2023/04/01 02:27:58;;;;;;;57.38;30.45;;;;;;;14.32;64.73;100065.34;6129771;23;20044;-82
2023/04/01 02:30:28;;;;;;;54.63;28.55;;;;;;;14.20;64.66;100043.56;6143449;23;20263;-81
2023/04/01 02:32:59;;;;;;;65.47;31.57;;;;;;;14.20;64.28;100043.56;6176642;23;20441;-82
2023/04/01 02:35:36;;;;;;;56.45;30.92;;;;;;;14.41;64.83;100074.16;6135684;23;20025;-84
2023/04/01 02:38:06;;;;;;;62.97;34.72;;;;;;;13.81;64.74;99982.16;6168772;23;20024;-82
2023/04/01 02:40:46;;;;;;;58.58;33.63;;;;;;;14.41;64.68;100074.97;6147937;23;20349;-82
2023/04/01 02:43:14;;;;;;;60.47;34.30;;;;;;;14.41;64.62;100071.50;6138691;23;20047;-82
2023/04/01 02:45:41;;;;;;;59.75;33.58;;;;;;;14.29;64.43;100053.16;6135785;23;20025;-82
2023/04/01 02:48:13;;;;;;;64.93;34.70;;;;;;;14.10;64.45;100024.22;6150527;23;20237;-83
2023/04/01 02:50:47;;;;;;;60.00;33.22;;;;;;;14.21;64.03;100031.84;6133347;23;20372;-81
2023/04/01 02:53:36;;;;;;;74.43;34.35;;;;;;;14.16;63.99;100039.56;6137506;23;20028;-83
2023/04/01 02:56:06;;;;;;;63.85;34.22;;;;;;;13.80;64.62;99991.16;6156227;23;20016;-81
2023/04/01 02:58:36;;;;;;;57.85;33.80;;;;;;;14.43;64.65;100093.50;6151781;23;20523;-83
2023/04/01 03:01:02;;;;;;;56.40;32.65;;;;;;;14.46;64.32;100088.63;6180305;23;20024;-83
2023/04/01 03:03:30;;;;;;;61.03;32.88;;;;;;;14.44;64.01;100073.81;6145028;23;20033;-83
2023/04/01 03:05:59;;;;;;;57.38;32.00;;;;;;;14.50;64.21;100079.28;6146178;23;20380;-82
2023/04/01 03:08:26;;;;;;;56.08;31.40;;;;;;;14.42;64.63;100083.84;6143778;23;20239;-80
2023/04/01 03:10:53;;;;;;;63.55;33.83;;;;;;;14.18;65.27;100058.09;6132398;23;20257;-83
2023/04/01 03:13:20;;;;;;;60.70;34.72;;;;;;;14.13;65.56;100063.94;6143734;23;20025;-82
2023/04/01 03:15:49;;;;;;;58.05;34.83;;;;;;;13.75;65.60;100010.34;6147298;23;20196;-80
2023/04/01 03:18:19;;;;;;;59.22;33.80;;;;;;;14.04;65.71;100063.13;6167707;23;20021;-81
2023/04/01 03:20:52;;;;;;;62.60;35.10;;;;;;;13.29;65.93;99955.97;6139553;23;20031;-83
2023/04/01 03:23:26;;;;;;;73.85;36.88;;;;;;;13.51;65.68;100002.41;6180437;23;20034;-81
2023/04/01 03:25:54;;;;;;;66.38;39.47;;;;;;;13.43;65.53;99980.09;6139365;23;20257;-82
2023/04/01 03:28:31;;;;;;;66.43;35.25;;;;;;;14.16;65.51;100098.28;6177556;23;20100;-83
2023/04/01 03:30:58;;;;;;;69.00;35.60;;;;;;;13.91;65.33;100060.19;6139453;23;20542;-82
2023/04/01 03:33:36;;;;;;;67.85;36.55;;;;;;;14.03;66.11;100092.63;6148795;23;20027;-83
2023/04/01 03:36:12;;;;;;;64.30;35.65;;;;;;;13.90;66.11;100086.00;6135958;23;20024;-82
2023/04/01 03:38:49;;;;;;;65.55;36.15;;;;;;;13.81;66.37;100100.38;6145562;23;20021;-82
2023/04/01 03:41:17;;;;;;;66.68;35.72;;;;;;;13.45;66.87;100063.44;6148514;23;20025;-83
2023/04/01 03:43:44;;;;;;;58.80;34.45;;;;;;;13.78;66.94;100114.03;6156514;23;20078;-81
2023/04/01 03:46:11;;;;;;;56.53;33.65;;;;;;;13.31;66.98;100050.78;6161646;23;20526;-81
2023/04/01 03:48:40;;;;;;;54.88;31.90;;;;;;;13.41;67.31;100056.75;6150815;23;20100;-82
2023/04/01 03:51:08;;;;;;;64.18;33.58;;;;;;;13.15;66.82;100014.25;6141832;23;20270;-82
2023/04/01 03:53:38;;;;;;;67.07;37.90;;;;;;;12.93;66.98;99989.09;6141217;23;20035;-80
2023/04/01 03:56:06;;;;;;;72.10;37.58;;;;;;;13.51;66.75;100098.41;6149930;23;20402;-83
2023/04/01 03:58:34;;;;;;;76.68;39.20;;;;;;;13.21;66.70;100042.09;6158946;23;20462;-80
2023/04/01 04:01:14;;;;;;;70.53;39.53;;;;;;;12.99;66.91;100008.94;6154846;23;20464;-81
2023/04/01 04:03:41;;;;;;;71.88;38.13;;;;;;;13.40;67.16;100084.44;6151750;23;20043;-83
2023/04/01 04:06:11;;;;;;;63.83;38.03;;;;;;;13.62;66.94;100117.56;6174197;23;20075;-83
2023/04/01 04:08:46;;;;;;;64.47;37.70;;;;;;;13.60;66.67;100124.09;6163925;23;20131;-82
2023/04/01 04:11:14;;;;;;;74.43;38.38;;;;;;;13.59;67.66;100125.06;6159286;23;20571;-81
2023/04/01 04:13:41;;;;;;;75.32;39.80;;;;;;;13.59;67.65;100122.41;6196758;23;20100;-81
2023/04/01 04:16:11;;;;;;;67.72;37.88;;;;;;;13.52;67.75;100119.59;6156342;23;20024;-81
2023/04/01 04:18:38;;;;;;;71.45;39.95;;;;;;;13.23;67.41;100085.41;6196649;23;20215;-82
2023/04/01 04:21:05;;;;;;;71.07;40.33;;;;;;;13.45;67.67;100138.09;6157919;23;20023;-82
2023/04/01 04:23:38;;;;;;;71.32;43.15;;;;;;;13.46;66.94;100144.25;6165652;23;20036;-81
2023/04/01 04:26:09;;;;;;;67.68;40.22;;;;;;;13.45;67.37;100143.41;6161542;23;20020;-81
2023/04/01 04:28:36;;;;;;;79.07;40.22;;;;;;;13.41;67.11;100134.06;6164184;23;20027;-81
2023/04/01 04:31:15;;;;;;;73.93;41.17;;;;;;;13.39;67.31;100137.91;6154137;23;20291;-82
2023/04/01 04:33:45;;;;;;;72.47;41.92;;;;;;;13.37;67.58;100140.72;6163149;23;20103;-82
2023/04/01 04:36:20;;;;;;;72.55;41.67;;;;;;;13.30;67.48;100128.22;6155184;23;20395;-82
2023/04/01 04:38:47;;;;;;;70.13;42.97;;;;;;;13.46;67.11;100152.25;6151009;23;20026;-81
2023/04/01 04:41:22;;;;;;;74.13;42.50;;;;;;;13.18;67.35;100101.88;6166667;23;20664;-83
2023/04/01 04:43:55;;;;;;;71.85;42.97;;;;;;;13.23;67.38;100120.06;6191884;23;20250;-84
2023/04/01 04:46:23;;;;;;;69.20;41.60;;;;;;;13.43;67.41;100142.75;6158647;23;20027;-82
2023/04/01 04:48:53;;;;;;;69.22;37.45;;;;;;;13.40;67.27;100140.41;6171698;23;20012;-82
2023/04/01 04:51:21;;;;;;;71.80;40.50;;;;;;;13.31;67.64;100138.75;6168186;23;20021;-82
2023/04/01 04:53:48;;;;;;;74.28;39.13;;;;;;;13.17;67.62;100107.38;6166411;23;20539;-83
2023/04/01 04:56:20;;;;;;;72.20;40.08;;;;;;;13.03;67.46;100116.84;6168172;23;20862;-82
2023/04/01 04:58:47;;;;;;;74.25;40.22;;;;;;;12.74;67.55;100061.34;6152430;23;20294;-84
2023/04/01 05:01:20;;;;;;;72.90;38.22;;;;;;;13.28;67.62;100157.75;6166244;23;20383;-80
2023/04/01 05:03:47;;;;;;;81.03;40.75;;;;;;;13.24;67.22;100135.03;6152648;23;20024;-82
2023/04/01 05:06:16;;;;;;;69.10;40.00;;;;;;;13.16;67.39;100129.72;6172904;23;20051;-83
2023/04/01 05:08:52;;;;;;;67.43;38.83;;;;;;;12.79;67.72;100086.50;6161780;23;20353;-82
2023/04/01 05:11:20;;;;;;;65.55;35.08;;;;;;;13.07;67.41;100152.00;6166270;23;20013;-82
2023/04/01 05:13:55;;;;;;;55.40;32.47;;;;;;;12.87;67.48;100133.63;6180734;23;20039;-82
2023/04/01 05:16:25;;;;;;;54.28;30.00;;;;;;;13.12;66.75;100168.34;6157592;23;20228;-82
2023/04/01 05:18:51;;;;;;;39.67;27.40;;;;;;;12.59;66.90;100093.94;6167289;23;20268;-81
2023/04/01 05:21:18;;;;;;;48.67;28.48;;;;;;;12.89;67.07;100152.97;6168005;23;20021;-83
2023/04/01 05:23:46;;;;;;;40.30;25.85;;;;;;;12.97;66.69;100155.63;6205300;23;20653;-82
2023/04/01 05:26:17;;;;;;;42.17;25.80;;;;;;;12.90;67.07;100159.13;6162094;23;20086;-82
2023/04/01 05:28:43;;;;;;;45.75;27.88;;;;;;;12.93;67.39;100170.28;6160440;23;20111;-82
2023/04/01 05:31:12;;;;;;;48.85;28.55;;;;;;;12.93;67.52;100164.94;6159002;23;20469;-83
2023/04/01 05:33:48;;;;;;;52.35;28.95;;;;;;;12.39;67.56;100081.88;6171033;23;20020;-81
2023/04/01 05:36:17;;;;;;;58.25;31.15;;;;;;;12.42;67.01;100081.56;6199042;23;20016;-82
2023/04/01 05:38:45;;;;;;;56.60;31.10;;;;;;;12.64;66.91;100104.09;6164882;23;20349;-80
2023/04/01 05:41:19;;;;;;;45.63;26.80;;;;;;;12.04;66.15;99990.63;6164263;23;20032;-79
2023/04/01 05:43:49;;;;;;;49.97;26.02;;;;;;;13.22;65.46;100177.00;6168577;23;20483;-81
2023/04/01 05:46:18;;;;;;;31.95;21.17;;;;;;;13.15;65.34;100166.16;6168955;23;20141;-81
2023/04/01 05:48:45;;;;;;;35.95;19.92;;;;;;;13.09;64.97;100152.69;6161760;23;20021;-80
2023/04/01 05:51:14;;;;;;;28.33;17.40;;;;;;;11.98;64.34;99973.47;6162238;23;20357;-82
2023/04/01 05:53:41;;;;;;;31.10;15.93;;;;;;;12.93;64.11;100132.97;6170159;23;20370;-82
2023/04/01 05:56:09;;;;;;;29.13;15.27;;;;;;;13.24;64.05;100191.00;6171911;23;20651;-82
2023/04/01 05:58:37;;;;;;;23.63;13.68;;;;;;;13.10;64.02;100165.00;6171900;23;20016;-82
2023/04/01 06:01:10;;;;;;;31.58;14.95;;;;;;;13.29;64.33;100202.03;6167986;23;20550;-81
2023/04/01 06:03:42;;;;;;;23.95;12.98;;;;;;;12.68;64.37;100092.13;6152702;23;20103;-81
2023/04/01 06:06:25;;;;;;;26.85;10.75;;;;;;;12.75;63.16;100101.16;6173375;23;20020;-80
2023/04/01 06:09:01;;;;;;;17.30;10.05;;;;;;;12.36;62.45;100016.50;6171442;23;20013;-82
2023/04/01 06:11:44;;;;;;;23.20;10.68;;;;;;;13.50;63.33;100200.75;6173830;23;20019;-82
2023/04/01 06:14:34;;;;;;;16.52;9.70;;;;;;;13.18;62.56;100154.34;6166296;23;20104;-81
2023/04/01 06:17:44;;;;;;;19.53;8.17;;;;;;;13.51;61.51;100192.56;6177641;23;20102;-81
2023/04/01 06:20:35;;;;;;;12.88;6.63;;;;;;;13.38;60.84;100163.75;6158619;23;20393;-82
2023/04/01 06:23:31;;;;;;;11.70;6.60;;;;;;;13.27;60.96;100140.06;6198532;23;20020;-81
2023/04/01 06:26:28;;;;;;;9.27;6.25;;;;;;;13.39;60.54;100149.41;6115914;23;20273;-81
2023/04/01 06:29:19;;;;;;;11.90;6.68;;;;;;;13.89;60.37;100215.09;6123141;23;20047;-80
2023/04/01 06:32:04;;;;;;;14.30;8.05;;;;;;;13.73;60.19;100172.41;6173715;23;20338;-81
2023/04/01 06:34:48;;;;;;;15.93;10.98;;;;;;;13.89;60.30;100209.75;6187638;23;20076;-82
2023/04/01 06:37:16;;;;;;;46.20;20.92;;;;;;;14.04;60.47;100222.44;6164415;23;20032;-82
2023/04/01 06:40:13;;;;;;;31.83;21.05;;;;;;;13.94;61.68;100224.44;6172790;23;20021;-83
2023/04/01 06:43:02;;;;;;;50.78;29.45;;;;;;;14.00;61.98;100229.09;6169851;23;20613;-82
2023/04/01 06:45:58;;;;;;;49.63;30.38;;;;;;;13.99;62.62;100230.09;6165736;23;20025;-83
2023/04/01 06:48:27;;;;;;;53.10;29.73;;;;;;;13.97;62.81;100221.44;6165187;23;20120;-81
2023/04/01 06:51:20;;;;;;;56.17;31.45;;;;;;;13.97;63.18;100230.25;6141653;23;20291;-81
2023/04/01 06:54:08;;;;;;;60.13;33.00;;;;;;;14.02;63.41;100219.09;6124307;23;20044;-82
2023/04/01 06:56:46;;;;;;;65.28;37.40;;;;;;;13.99;63.81;100233.59;6147196;23;20525;-80
2023/04/01 06:59:20;;;;;;;64.15;38.78;;;;;;;14.12;63.50;100246.44;6123576;23;20111;-80
2023/04/01 07:02:05;;;;;;;75.15;36.83;;;;;;;14.16;63.25;100226.41;6161532;23;20192;-80
2023/04/01 07:04:42;;;;;;;70.63;38.47;;;;;;;14.10;63.03;100203.06;6157135;23;20020;-80
2023/04/01 07:07:24;;;;;;;60.92;35.80;;;;;;;13.76;62.80;100148.09;6162404;23;20184;-81
2023/04/01 07:10:00;;;;;;;63.13;35.00;;;;;;;13.83;63.09;100166.91;6159827;23;20028;-80
2023/04/01 07:12:37;;;;;;;58.47;31.35;;;;;;;14.36;61.58;100220.72;6158054;23;20448;-80
2023/04/01 07:15:34;;;;;;;51.03;28.05;;;;;;;14.38;60.99;100229.38;6163454;23;20017;-80
2023/04/01 07:18:19;;;;;;;50.83;27.73;;;;;;;14.40;60.73;100222.06;6195551;23;20017;-80
2023/04/01 07:20:46;;;;;;;57.22;29.63;;;;;;;14.17;61.27;100180.03;6171634;23;20020;-79
2023/04/01 07:23:23;;;;;;;50.88;30.08;;;;;;;14.42;60.86;100215.53;6157541;23;20021;-79
2023/04/01 07:26:22;;;;;;;53.17;30.45;;;;;;;14.63;59.83;100224.84;6193471;23;20017;-81
2023/04/01 07:28:53;;;;;;;48.80;27.23;;;;;;;14.53;59.57;100215.19;6160647;23;20055;-82
2023/04/01 07:31:42;;;;;;;44.45;25.02;;;;;;;14.69;58.75;100219.66;6170510;23;20353;-81
2023/04/01 07:34:24;;;;;;;44.92;25.77;;;;;;;14.89;57.56;100232.59;6188208;23;20025;-81
2023/04/01 07:37:10;;;;;;;41.58;23.90;;;;;;;14.75;57.06;100205.59;6151374;23;20253;-81
2023/04/01 07:39:58;;;;;;;50.67;25.48;;;;;;;13.65;57.69;100031.06;6186956;23;20385;-82
2023/04/01 07:42:56;;;;;;;43.95;26.30;;;;;;;14.71;58.34;100225.66;6144309;23;20453;-81
2023/04/01 07:45:34;;;;;;;44.58;24.25;;;;;;;14.74;58.15;100216.47;6173932;23;20325;-80
2023/04/01 07:48:39;;;;;;;39.22;23.48;;;;;;;14.62;56.96;100180.44;6163158;23;20025;-80
2023/04/01 07:51:29;;;;;;;40.63;24.40;;;;;;;14.75;56.83;100205.59;6190817;23;20020;-82
2023/04/01 07:54:06;;;;;;;46.30;25.17;;;;;;;14.42;56.92;100131.91;6164154;23;20052;-83
2023/04/01 07:57:00;;;;;;;44.83;25.02;;;;;;;14.77;57.86;100193.91;6176794;23;20475;-82
2023/04/01 07:59:58;;;;;;;42.10;24.58;;;;;;;14.98;57.06;100230.72;6152444;23;20237;-82
2023/04/01 08:02:53;;;;;;;39.20;24.10;;;;;;;14.85;56.94;100225.94;6131897;23;20033;-82
2023/04/01 08:06:01;;;;;;;45.88;25.33;;;;;;;14.85;57.41;100223.25;6100871;23;20341;-81
2023/04/01 08:08:52;;;;;;;45.75;25.45;;;;;;;14.90;57.18;100224.41;6124539;23;20013;-80
2023/04/01 08:12:00;;;;;;;46.88;25.95;;;;;;;15.09;56.64;100227.66;6121255;23;20706;-81
2023/04/01 08:15:00;;;;;;;48.97;26.35;;;;;;;15.18;55.55;100230.13;6120426;23;20132;-80
2023/04/01 08:18:14;;;;;;;44.90;24.55;;;;;;;14.58;55.29;100139.88;6149945;23;20052;-80
2023/04/01 08:20:48;;;;;;;36.42;22.13;;;;;;;14.40;55.19;100133.91;6053848;23;20602;-81
2023/04/01 08:23:24;;;;;;;42.53;23.13;;;;;;;13.69;55.61;100019.06;6100538;23;20033;-82
2023/04/01 08:26:04;;;;;;;41.10;22.83;;;;;;;14.90;55.97;100216.41;6121188;23;20109;-81
2023/04/01 08:28:37;;;;;;;36.70;23.55;;;;;;;15.06;56.07;100226.16;6122805;23;20205;-81
2023/04/01 08:31:26;;;;;;;39.72;22.70;;;;;;;15.06;55.15;100228.00;6139990;23;20438;-81
2023/04/01 08:33:58;;;;;;;42.10;23.48;;;;;;;14.64;55.95;100136.53;6133495;23;20025;-80
2023/04/01 08:36:44;;;;;;;40.13;22.27;;;;;;;15.15;54.55;100210.94;6128120;23;20466;-83
2023/04/01 08:39:18;;;;;;;43.33;24.02;;;;;;;15.03;55.47;100191.78;6126455;23;20393;-82
2023/04/01 08:41:53;;;;;;;48.15;24.05;;;;;;;15.06;56.02;100206.63;6114977;23;20138;-81
2023/04/01 08:44:47;;;;;;;52.08;25.77;;;;;;;15.29;56.22;100222.69;6128896;23;20018;-83
2023/04/01 08:47:52;;;;;;;44.90;24.30;;;;;;;15.34;55.95;100223.00;6143972;23;20037;-82
2023/04/01 08:50:45;;;;;;;41.47;24.58;;;;;;;15.46;55.63;100224.28;6121528;23;20052;-82
2023/04/01 08:53:19;;;;;;;36.85;23.17;;;;;;;15.44;55.79;100220.94;6111028;23;20092;-81
2023/04/01 08:56:17;;;;;;;48.22;24.05;;;;;;;15.50;55.38;100230.09;6111794;23;20025;-83
2023/04/01 08:58:51;;;;;;;38.55;23.35;;;;;;;15.17;54.97;100169.63;6118100;23;20109;-81
2023/04/01 09:01:43;;;;;;;39.15;24.15;;;;;;;15.71;54.71;100232.16;6123928;23;20017;-83
2023/04/01 09:04:35;;;;;;;37.67;22.67;;;;;;;15.48;54.32;100202.69;6127155;23;20030;-82
2023/04/01 09:07:30;;;;;;;35.25;21.92;;;;;;;15.69;54.54;100236.81;6111891;23;20142;-83
2023/04/01 09:10:22;;;;;;;34.35;21.38;;;;;;;15.43;54.45;100178.31;6121818;23;20031;-81
2023/04/01 09:13:07;;;;;;;38.55;21.95;;;;;;;15.89;54.42;100235.34;6119478;23;20022;-82
2023/04/01 09:15:53;;;;;;;36.00;22.67;;;;;;;16.08;53.15;100233.19;6118243;23;20068;-82
2023/04/01 09:18:42;;;;;;;39.15;21.52;;;;;;;16.24;53.17;100241.09;6127724;23;20036;-79
2023/04/01 09:21:15;;;;;;;39.70;22.17;;;;;;;16.19;52.13;100230.06;6124096;23;20029;-83
2023/04/01 09:23:52;;;;;;;36.65;21.30;;;;;;;15.94;52.18;100179.41;6137755;23;20028;-83
2023/04/01 09:26:57;;;;;;;39.03;21.33;;;;;;;15.95;52.10;100181.09;6130232;23;20324;-82
2023/04/01 09:29:43;;;;;;;41.10;21.42;;;;;;;16.08;52.42;100174.28;6119130;23;20072;-82
2023/04/01 09:32:47;;;;;;;33.28;19.98;;;;;;;16.70;50.93;100230.22;6121988;23;20072;-82
2023/04/01 09:35:48;;;;;;;34.78;19.33;;;;;;;16.91;51.16;100228.66;6125592;23;20112;-80
2023/04/01 09:38:40;;;;;;;32.67;17.50;;;;;;;17.17;48.37;100220.94;6131772;23;20171;-81
2023/04/01 09:41:42;;;;;;;32.63;16.38;;;;;;;17.33;47.45;100211.81;6114267;23;20259;-80
2023/04/01 09:44:46;;;;;;;29.17;16.58;;;;;;;17.58;47.54;100219.50;6091150;23;20017;-83
2023/04/01 09:47:44;;;;;;;29.35;16.95;;;;;;;17.61;47.88;100198.47;6130756;23;20025;-82
2023/04/01 09:50:19;;;;;;;30.90;17.33;;;;;;;17.91;47.23;100217.13;6076838;23;20028;-83
2023/04/01 09:53:04;;;;;;;30.00;15.23;;;;;;;18.14;46.53;100225.81;6123168;23;20425;-83
2023/04/01 09:56:09;;;;;;;31.73;14.98;;;;;;;18.34;46.59;100215.19;6114289;23;20421;-81
2023/04/01 09:59:28;;;;;;;26.08;17.10;;;;;;;18.60;46.23;100219.09;6133472;23;20097;-83
2023/04/01 10:02:23;;;;;;;21.58;14.02;;;;;;;18.68;42.48;100194.72;6089346;23;20496;-84
2023/04/01 10:05:19;;;;;;;26.48;14.70;;;;;;;18.74;42.32;100160.84;6129808;23;20030;-82
2023/04/01 10:08:06;;;;;;;21.02;13.25;;;;;;;18.80;42.68;100149.31;6108555;23;20108;-80
2023/04/01 10:11:06;;;;;;;25.42;15.07;;;;;;;19.23;42.63;100178.63;6123881;23;20021;-81
2023/04/01 10:14:11;;;;;;;25.33;13.38;;;;;;;19.48;42.88;100218.41;6105187;23;20259;-80
2023/04/01 10:17:04;;;;;;;28.20;15.65;;;;;;;19.80;41.68;100217.66;6109904;23;20319;-80
2023/04/01 10:20:08;;;;;;;21.50;13.65;;;;;;;19.85;40.82;100207.13;6129496;23;20101;-81
2023/04/01 10:23:02;;;;;;;23.80;11.50;;;;;;;19.92;40.24;100192.81;6117607;23;20021;-81
2023/04/01 10:25:55;;;;;;;25.10;13.02;;;;;;;19.96;40.80;100161.72;6136178;23;20233;-80
2023/04/01 10:28:49;;;;;;;25.55;13.48;;;;;;;20.48;39.69;100192.31;6121947;23;20474;-83
2023/04/01 10:32:02;;;;;;;20.90;10.15;;;;;;;20.65;38.43;100184.63;6114568;23;20021;-81
2023/04/01 10:34:53;;;;;;;17.75;11.02;;;;;;;20.74;38.58;100188.75;6114826;23;20044;-82
2023/04/01 10:37:32;;;;;;;20.85;12.80;;;;;;;20.84;39.30;100177.50;6142189;23;20068;-82
2023/04/01 10:40:18;;;;;;;20.77;10.48;;;;;;;20.95;37.97;100168.72;6118482;23;20052;-82
2023/04/01 10:43:09;;;;;;;17.63;8.98;;;;;;;20.91;36.05;100124.34;6118226;23;20060;-83
2023/04/01 10:46:21;;;;;;;13.02;8.57;;;;;;;21.44;34.83;100172.63;6098281;23;20194;-77
2023/04/01 10:49:13;;;;;;;20.80;9.38;;;;;;;21.65;35.25;100173.28;6077485;23;20108;-77
2023/04/01 10:51:52;;;;;;;13.35;8.18;;;;;;;21.42;35.20;100115.31;6146555;23;20021;-76
2023/04/01 10:54:24;;;;;;;15.68;10.30;;;;;;;21.94;34.55;100159.16;6132503;23;20025;-82
2023/04/01 10:56:56;;;;;;;13.88;8.45;;;;;;;21.66;35.06;100099.34;6125093;23;20652;-82
2023/04/01 11:00:04;;;;;;;16.83;9.00;;;;;;;22.19;33.30;100150.19;6130531;23;20046;-81
2023/04/01 11:03:00;;;;;;;19.67;8.52;;;;;;;22.02;32.91;100119.38;6167561;23;20082;-82
2023/04/01 11:06:11;;;;;;;13.38;9.13;;;;;;;22.48;33.45;100158.63;6167457;23;20063;-81
2023/04/01 11:09:05;;;;;;;12.73;7.00;;;;;;;22.45;33.03;100107.69;6176401;23;20078;-80
2023/04/01 11:11:50;;;;;;;11.90;6.68;;;;;;;22.92;32.88;100154.75;6154755;23;20856;-82
2023/04/01 11:14:39;;;;;;;15.07;9.68;;;;;;;23.19;32.80;100157.94;6152129;23;20296;-82
2023/04/01 11:17:46;;;;;;;13.57;8.52;;;;;;;23.23;33.18;100148.31;6162612;23;20028;-82
2023/04/01 11:20:20;;;;;;;12.80;7.95;;;;;;;23.05;32.20;100091.50;6164253;23;20406;-83
2023/04/01 11:23:14;;;;;;;14.40;8.18;;;;;;;23.51;32.07;100143.31;6152931;23;20039;-82
2023/04/01 11:26:21;;;;;;;12.98;8.15;;;;;;;22.58;32.12;99977.69;6188127;23;20456;-82
2023/04/01 11:29:28;;;;;;;15.35;8.38;;;;;;;23.83;30.12;100141.13;6146373;23;20024;-81
2023/04/01 11:32:16;;;;;;;11.68;7.40;;;;;;;23.27;31.09;100044.94;6108964;23;20472;-82
2023/04/01 11:35:21;;;;;;;16.35;8.30;;;;;;;23.70;31.12;100090.69;6179749;23;20024;-83
2023/04/01 11:38:15;;;;;;;16.23;7.90;;;;;;;24.03;31.43;100136.22;6160891;23;20348;-83
2023/04/01 11:41:25;;;;;;;12.98;7.93;;;;;;;24.18;30.98;100138.44;6177804;23;20094;-80
2023/04/01 11:44:22;;;;;;;10.35;7.32;;;;;;;24.15;30.36;100128.03;6160323;23;20181;-81
2023/04/01 11:47:13;;;;;;;11.70;6.15;;;;;;;23.64;29.76;99989.50;6152136;23;20302;-81
2023/04/01 11:49:55;;;;;;;10.13;5.47;;;;;;;24.75;28.14;100126.88;6164781;23;20506;-80
2023/04/01 11:52:46;;;;;;;9.02;5.10;;;;;;;24.92;28.19;100116.88;6156908;23;20380;-80
2023/04/01 11:55:50;;;;;;;10.50;5.82;;;;;;;25.15;27.05;100115.97;6173102;23;20289;-79
2023/04/01 11:58:52;;;;;;;8.20;5.45;;;;;;;25.36;26.60;100117.16;6145803;23;20503;-81
2023/04/01 12:01:44;;;;;;;9.63;5.85;;;;;;;25.54;26.81;100101.72;6182023;23;20438;-80
2023/04/01 12:04:45;;;;;;;8.57;5.15;;;;;;;25.89;27.80;100114.22;6144592;23;20104;-80
2023/04/01 12:07:44;;;;;;;13.60;6.28;;;;;;;26.08;27.41;100112.03;6147752;23;20024;-81
2023/04/01 12:10:44;;;;;;;9.60;5.55;;;;;;;26.23;27.16;100109.53;6158031;23;20025;-80
2023/04/01 12:13:36;;;;;;;10.90;4.90;;;;;;;25.97;25.93;100048.53;6163051;23;20075;-79
2023/04/01 12:16:45;;;;;;;9.43;5.32;;;;;;;26.42;24.73;100085.56;6160250;23;20028;-79